createdAt,value
2023-05-15T00:00:34.744Z,65.20
2023-05-15T00:03:02.328Z,65.30
2023-05-15T00:05:29.189Z,65.40
2023-05-15T00:07:56.080Z,65.40
2023-05-15T00:10:22.772Z,65.50
2023-05-15T00:12:50.244Z,65.50
2023-05-15T00:15:17.283Z,65.40
2023-05-15T00:17:44.020Z,65.60
2023-05-15T00:20:12.425Z,65.60
2023-05-15T00:22:39.179Z,65.90
2023-05-15T00:25:06.584Z,65.90
2023-05-15T00:27:33.422Z,66.10
2023-05-15T00:30:00.256Z,66.00
2023-05-15T00:32:26.939Z,66.10
2023-05-15T00:34:53.636Z,66.20
2023-05-15T00:37:20.433Z,66.20
2023-05-15T00:39:47.132Z,66.20
2023-05-15T00:42:16.244Z,66.20
2023-05-15T00:44:44.226Z,66.20
2023-05-15T00:47:13.753Z,67.00
2023-05-15T00:49:41.510Z,67.10
2023-05-15T00:52:08.737Z,66.80
2023-05-15T00:54:35.579Z,66.40
2023-05-15T00:57:06.476Z,66.40
2023-05-15T00:59:34.470Z,67.70
2023-05-15T01:02:01.412Z,67.10
2023-05-15T01:04:28.756Z,66.70
2023-05-15T01:06:55.658Z,66.70
2023-05-15T01:09:27.401Z,66.50
2023-05-15T01:11:57.393Z,67.90
2023-05-15T01:14:24.277Z,67.50
2023-05-15T01:16:51.351Z,67.00
2023-05-15T01:19:18.181Z,66.70
2023-05-15T01:21:57.925Z,66.80
2023-05-15T01:24:52.193Z,68.70
2023-05-15T01:27:54.559Z,69.10
2023-05-15T01:30:36.085Z,68.40
2023-05-15T01:33:13.541Z,68.60
2023-05-15T01:36:01.330Z,68.30
2023-05-15T01:38:34.385Z,68.90
2023-05-15T01:41:24.168Z,68.90
2023-05-15T01:43:57.007Z,68.90
2023-05-15T01:46:25.221Z,69.10
2023-05-15T01:48:53.641Z,67.90
2023-05-15T01:51:22.320Z,68.10
2023-05-15T01:53:49.963Z,68.40
2023-05-15T01:56:19.965Z,68.70
2023-05-15T01:58:48.285Z,68.30
2023-05-15T02:01:16.943Z,68.80
2023-05-15T02:03:45.962Z,68.80
2023-05-15T02:06:14.057Z,69.20
2023-05-15T02:08:42.896Z,68.80
2023-05-15T02:11:10.736Z,69.00
2023-05-15T02:13:38.278Z,68.30
2023-05-15T02:16:05.303Z,67.80
2023-05-15T02:18:32.354Z,68.00
2023-05-15T02:21:01.071Z,67.90
2023-05-15T02:23:27.835Z,67.90
2023-05-15T02:26:13.932Z,68.10
2023-05-15T02:29:00.404Z,70.20
2023-05-15T02:31:32.463Z,69.40
2023-05-15T02:34:34.938Z,68.10
2023-05-15T02:37:04.579Z,69.50
2023-05-15T02:39:32.635Z,69.30
2023-05-15T02:42:01.405Z,68.60
2023-05-15T02:44:28.702Z,68.90
2023-05-15T02:46:57.392Z,68.10
2023-05-15T02:49:24.572Z,68.00
2023-05-15T02:51:51.297Z,67.80
2023-05-15T02:54:18.619Z,67.80
2023-05-15T02:56:45.366Z,68.30
2023-05-15T02:59:13.424Z,67.80
2023-05-15T03:01:40.310Z,68.30
2023-05-15T03:04:07.152Z,68.40
2023-05-15T03:06:33.868Z,68.70
2023-05-15T03:09:00.580Z,68.60
2023-05-15T03:11:27.347Z,68.80
2023-05-15T03:13:54.031Z,69.40
2023-05-15T03:16:20.733Z,68.90
2023-05-15T03:18:47.606Z,68.90
2023-05-15T03:21:14.420Z,69.40
2023-05-15T03:23:41.160Z,68.70
2023-05-15T03:26:07.928Z,68.70
2023-05-15T03:28:34.803Z,68.80
2023-05-15T03:31:01.718Z,68.90
2023-05-15T03:33:28.613Z,69.20
2023-05-15T03:35:55.402Z,69.00
2023-05-15T03:38:22.172Z,68.80
2023-05-15T03:40:50.980Z,68.60
2023-05-15T03:43:18.006Z,68.50
2023-05-15T03:45:44.755Z,68.20
2023-05-15T03:48:11.420Z,68.10
2023-05-15T03:50:39.273Z,68.00
2023-05-15T03:53:06.071Z,68.30
2023-05-15T03:55:32.818Z,68.70
2023-05-15T03:57:59.625Z,68.20
2023-05-15T04:00:26.564Z,68.60
2023-05-15T04:02:53.438Z,68.30
2023-05-15T04:05:21.756Z,68.30
2023-05-15T04:07:48.895Z,68.50
2023-05-15T04:10:15.642Z,68.50
2023-05-15T04:12:42.377Z,68.30
2023-05-15T04:15:22.322Z,68.00
2023-05-15T04:17:52.873Z,70.10
2023-05-15T04:20:21.616Z,68.90
2023-05-15T04:22:48.866Z,68.70
2023-05-15T04:25:16.434Z,68.20
2023-05-15T04:27:44.287Z,67.70
2023-05-15T04:30:12.910Z,67.50
2023-05-15T04:32:40.694Z,68.40
2023-05-15T04:35:10.379Z,68.40
2023-05-15T04:37:40.889Z,68.50
2023-05-15T04:40:08.942Z,67.40
2023-05-15T04:42:37.779Z,68.30
2023-05-15T04:45:06.202Z,68.20
2023-05-15T04:47:33.014Z,67.40
2023-05-15T04:49:59.740Z,66.80
2023-05-15T04:52:26.458Z,66.70
2023-05-15T04:54:53.272Z,66.60
2023-05-15T04:57:20.018Z,66.20
2023-05-15T04:59:46.758Z,66.10
2023-05-15T05:02:13.492Z,66.00
2023-05-15T05:04:43.859Z,65.90
2023-05-15T05:07:10.623Z,67.90
2023-05-15T05:09:41.901Z,65.90
2023-05-15T05:12:09.401Z,67.20
2023-05-15T05:14:36.776Z,66.60
2023-05-15T05:17:03.958Z,66.30
2023-05-15T05:19:30.982Z,66.10
2023-05-15T05:22:01.254Z,66.10
2023-05-15T05:24:28.437Z,65.90
2023-05-15T05:26:57.987Z,65.80
2023-05-15T05:29:25.110Z,65.90
2023-05-15T05:31:52.127Z,66.30
2023-05-15T05:34:19.855Z,65.60
2023-05-15T05:36:46.629Z,65.80
2023-05-15T05:39:13.444Z,65.30
2023-05-15T05:41:40.213Z,65.40
2023-05-15T05:44:06.943Z,65.40
2023-05-15T05:46:33.739Z,65.50
2023-05-15T05:49:00.672Z,65.10
2023-05-15T05:51:27.357Z,64.60
2023-05-15T05:53:54.435Z,64.20
2023-05-15T05:56:21.687Z,63.80
2023-05-15T05:58:48.432Z,63.50
2023-05-15T06:01:15.333Z,63.50
2023-05-15T06:03:43.735Z,63.40
2023-05-15T06:06:10.774Z,64.50
2023-05-15T06:08:37.500Z,63.10
2023-05-15T06:11:04.661Z,63.00
2023-05-15T06:13:31.774Z,63.10
2023-05-15T06:15:58.490Z,62.50
2023-05-15T06:18:25.440Z,62.70
2023-05-15T06:20:53.349Z,63.10
2023-05-15T06:23:20.395Z,63.10
2023-05-15T06:25:47.647Z,63.10
2023-05-15T06:28:14.381Z,63.20
2023-05-15T06:30:41.330Z,63.10
2023-05-15T06:33:08.270Z,62.80
2023-05-15T06:35:35.534Z,62.60
2023-05-15T06:38:02.439Z,62.30
2023-05-15T06:40:29.339Z,62.00
2023-05-15T06:42:56.136Z,62.00
2023-05-15T06:45:22.912Z,61.60
2023-05-15T06:47:49.808Z,61.10
2023-05-15T06:50:16.618Z,60.90
2023-05-15T06:52:43.371Z,61.10
2023-05-15T06:55:10.303Z,60.50
2023-05-15T06:57:37.030Z,60.30
2023-05-15T07:00:05.364Z,59.30
2023-05-15T07:02:32.158Z,59.40
2023-05-15T07:04:58.902Z,58.40
2023-05-15T07:07:25.743Z,58.30
2023-05-15T07:09:52.491Z,58.70
2023-05-15T07:12:19.223Z,58.70
2023-05-15T07:14:45.898Z,59.10
2023-05-15T07:17:12.697Z,59.20
2023-05-15T07:19:39.508Z,59.70
2023-05-15T07:22:06.310Z,59.80
2023-05-15T07:24:33.025Z,59.60
2023-05-15T07:26:59.740Z,59.10
2023-05-15T07:29:26.683Z,59.40
2023-05-15T07:31:53.667Z,58.50
2023-05-15T07:34:20.763Z,58.20
2023-05-15T07:36:47.560Z,57.90
2023-05-15T07:39:14.330Z,57.80
2023-05-15T07:41:41.081Z,57.80
2023-05-15T07:44:08.123Z,57.60
2023-05-15T07:46:35.308Z,56.40
2023-05-15T07:49:02.311Z,56.00
2023-05-15T07:51:29.313Z,56.10
2023-05-15T07:53:56.081Z,55.90
2023-05-15T07:56:23.335Z,56.20
2023-05-15T07:58:50.309Z,55.90
2023-05-15T08:01:17.053Z,55.60
2023-05-15T08:03:43.982Z,55.90
2023-05-15T08:06:10.855Z,56.10
2023-05-15T08:08:37.540Z,55.90
2023-05-15T08:11:04.321Z,55.60
2023-05-15T08:13:31.117Z,55.30
2023-05-15T08:15:57.925Z,54.80
2023-05-15T08:18:24.687Z,54.10
2023-05-15T08:20:52.246Z,52.90
2023-05-15T08:23:19.187Z,53.60
2023-05-15T08:25:46.166Z,52.00
2023-05-15T08:28:12.962Z,51.30
2023-05-15T08:30:39.666Z,51.20
2023-05-15T08:33:06.517Z,50.70
2023-05-15T08:35:33.337Z,50.10
2023-05-15T08:38:00.544Z,49.70
2023-05-15T08:40:38.269Z,50.30
2023-05-15T08:43:15.542Z,50.40
2023-05-15T08:45:43.313Z,51.00
2023-05-15T08:48:14.109Z,50.40
2023-05-15T08:50:43.449Z,50.50
2023-05-15T08:53:12.657Z,50.10
2023-05-15T08:55:40.112Z,50.40
2023-05-15T08:58:09.328Z,50.80
2023-05-15T09:00:36.232Z,51.00
2023-05-15T09:03:03.398Z,50.90
2023-05-15T09:05:30.693Z,51.20
2023-05-15T09:07:59.989Z,51.40
2023-05-15T09:10:27.057Z,52.50
2023-05-15T09:12:54.661Z,52.40
2023-05-15T09:15:25.365Z,52.20
2023-05-15T09:17:52.566Z,52.00
2023-05-15T09:20:25.699Z,51.50
2023-05-15T09:22:52.703Z,51.40
2023-05-15T09:25:37.523Z,50.80
2023-05-15T09:28:05.666Z,52.00
2023-05-15T09:30:32.515Z,51.70
2023-05-15T09:33:01.411Z,52.30
2023-05-15T09:35:33.088Z,52.50
2023-05-15T09:38:01.011Z,52.30
2023-05-15T09:40:32.032Z,52.60
2023-05-15T09:42:59.686Z,52.90
2023-05-15T09:45:29.592Z,52.00
2023-05-15T09:47:59.401Z,51.60
2023-05-15T09:50:41.873Z,51.40
2023-05-15T09:53:12.671Z,51.60
2023-05-15T09:55:42.114Z,51.70
2023-05-15T09:58:13.303Z,51.20
2023-05-15T10:00:48.768Z,50.60
2023-05-15T10:03:18.912Z,50.40
2023-05-15T10:05:45.878Z,50.70
2023-05-15T10:08:12.841Z,50.70
2023-05-15T10:10:39.756Z,51.10
2023-05-15T10:13:08.320Z,51.90
2023-05-15T10:15:35.469Z,52.00
2023-05-15T10:18:04.581Z,52.10
2023-05-15T10:20:35.599Z,52.60
2023-05-15T10:23:06.020Z,53.00
2023-05-15T10:25:55.772Z,53.30
2023-05-15T10:28:23.158Z,53.60
2023-05-15T10:30:50.895Z,53.60
2023-05-15T10:33:19.398Z,53.80
2023-05-15T10:35:48.368Z,54.00
2023-05-15T10:38:15.842Z,54.10
2023-05-15T10:40:43.472Z,54.10
2023-05-15T10:43:12.050Z,54.20
2023-05-15T10:45:39.544Z,54.50
2023-05-15T10:48:08.313Z,54.50
2023-05-15T10:50:37.576Z,54.70
2023-05-15T10:53:04.447Z,55.20
2023-05-15T10:55:31.401Z,54.70
2023-05-15T10:57:58.416Z,55.20
2023-05-15T11:00:30.196Z,55.70
2023-05-15T11:02:58.696Z,56.20
2023-05-15T11:05:26.366Z,56.00
2023-05-15T11:08:14.871Z,56.40
2023-05-15T11:10:41.788Z,57.40
2023-05-15T11:13:08.630Z,56.70
2023-05-15T11:15:42.891Z,56.70
2023-05-15T11:18:10.033Z,57.60
2023-05-15T11:20:41.899Z,56.40
2023-05-15T11:23:09.049Z,56.80
2023-05-15T11:25:36.888Z,56.10
2023-05-15T11:28:05.019Z,55.90
2023-05-15T11:30:39.583Z,56.20
2023-05-15T11:33:09.988Z,56.10
2023-05-15T11:35:43.976Z,55.30
2023-05-15T11:38:10.824Z,56.60
2023-05-15T11:40:59.078Z,56.00
2023-05-15T11:43:30.741Z,57.40
2023-05-15T11:46:09.070Z,57.60
2023-05-15T11:48:47.816Z,56.80
2023-05-15T11:51:21.693Z,57.60
2023-05-15T11:53:53.677Z,57.10
2023-05-15T11:56:22.932Z,56.80
2023-05-15T11:58:50.850Z,56.30
2023-05-15T12:01:17.803Z,55.90
2023-05-15T12:03:48.169Z,55.70
2023-05-15T12:06:15.422Z,56.30
2023-05-15T12:08:42.301Z,55.70
2023-05-15T12:11:09.458Z,56.20
2023-05-15T12:13:36.235Z,54.30
2023-05-15T12:16:04.294Z,54.00
2023-05-15T12:18:32.538Z,53.80
2023-05-15T12:21:00.079Z,53.30
2023-05-15T12:23:28.556Z,53.00
2023-05-15T12:26:00.401Z,52.70
2023-05-15T12:28:28.392Z,52.40
2023-05-15T12:30:55.918Z,51.80
2023-05-15T12:33:23.430Z,52.70
2023-05-15T12:35:54.942Z,51.00
2023-05-15T12:38:24.902Z,50.20
2023-05-15T12:40:56.896Z,49.80
2023-05-15T12:43:25.389Z,49.50
2023-05-15T12:45:56.897Z,49.00
2023-05-15T12:48:29.272Z,49.00
2023-05-15T12:50:56.125Z,49.20
2023-05-15T12:53:22.933Z,48.50
2023-05-15T12:55:51.250Z,48.10
2023-05-15T12:58:19.180Z,47.70
2023-05-15T13:00:46.758Z,47.90
2023-05-15T13:03:14.308Z,48.20
2023-05-15T13:05:45.659Z,48.20
2023-05-15T13:08:18.121Z,48.30
2023-05-15T13:10:46.011Z,48.80
2023-05-15T13:13:12.829Z,49.00
2023-05-15T13:15:42.651Z,48.20
2023-05-15T13:18:17.235Z,48.50
2023-05-15T13:20:48.650Z,48.70
2023-05-15T13:23:20.309Z,48.70
2023-05-15T13:25:47.343Z,48.40
2023-05-15T13:28:14.110Z,48.10
2023-05-15T13:30:41.924Z,48.20
2023-05-15T13:33:11.761Z,47.70
2023-05-15T13:35:39.784Z,48.10
2023-05-15T13:38:07.624Z,48.50
2023-05-15T13:40:37.377Z,49.40
2023-05-15T13:43:06.370Z,50.40
2023-05-15T13:45:33.103Z,51.00
2023-05-15T13:48:00.163Z,51.30
2023-05-15T13:50:27.297Z,51.70
2023-05-15T13:52:57.300Z,52.10
2023-05-15T13:55:25.692Z,52.80
2023-05-15T13:57:53.157Z,53.30
2023-05-15T14:00:20.364Z,53.80
2023-05-15T14:02:47.157Z,53.90
2023-05-15T14:05:15.143Z,54.30
2023-05-15T14:07:42.497Z,54.40
2023-05-15T14:10:09.874Z,55.50
2023-05-15T14:12:37.407Z,55.00
2023-05-15T14:15:04.551Z,54.50
2023-05-15T14:17:31.353Z,53.90
2023-05-15T14:19:58.203Z,53.70
2023-05-15T14:22:25.272Z,53.50
2023-05-15T14:24:53.107Z,53.40
2023-05-15T14:27:20.372Z,52.80
2023-05-15T14:29:48.829Z,52.70
2023-05-15T14:32:16.376Z,52.20
2023-05-15T14:34:43.286Z,51.70
2023-05-15T14:37:10.326Z,51.60
2023-05-15T14:39:37.174Z,52.00
2023-05-15T14:42:04.181Z,52.70
2023-05-15T14:44:30.911Z,52.90
2023-05-15T14:47:09.142Z,53.30
2023-05-15T14:49:37.678Z,54.90
2023-05-15T14:52:07.320Z,54.70
2023-05-15T14:54:35.501Z,55.10
2023-05-15T14:57:02.451Z,54.80
2023-05-15T14:59:29.449Z,54.70
2023-05-15T15:01:56.295Z,54.60
2023-05-15T15:04:23.031Z,54.90
2023-05-15T15:06:50.008Z,55.30
2023-05-15T15:09:18.267Z,55.80
2023-05-15T15:11:46.295Z,55.90
2023-05-15T15:14:13.032Z,56.20
2023-05-15T15:16:39.823Z,56.40
2023-05-15T15:19:06.570Z,56.50
2023-05-15T15:21:34.533Z,56.70
2023-05-15T15:24:01.203Z,56.50
2023-05-15T15:26:27.891Z,56.30
2023-05-15T15:28:55.326Z,56.10
2023-05-15T15:31:22.087Z,56.20
2023-05-15T15:33:48.984Z,56.20
2023-05-15T15:36:15.686Z,56.20
2023-05-15T15:38:43.751Z,56.20
2023-05-15T15:41:10.525Z,56.40
2023-05-15T15:43:37.218Z,56.60
2023-05-15T15:46:04.052Z,57.10
2023-05-15T15:48:30.768Z,57.10
2023-05-15T15:50:57.683Z,57.20
2023-05-15T15:53:24.433Z,57.30
2023-05-15T15:55:51.144Z,57.80
2023-05-15T15:58:19.725Z,57.60
2023-05-15T16:00:46.559Z,57.40
2023-05-15T16:03:13.348Z,57.60
2023-05-15T16:05:40.215Z,57.40
2023-05-15T16:08:07.032Z,57.70
2023-05-15T16:10:33.702Z,57.80
2023-05-15T16:13:00.423Z,57.60
2023-05-15T16:15:27.130Z,58.10
2023-05-15T16:17:54.931Z,58.40
2023-05-15T16:20:22.441Z,58.20
2023-05-15T16:22:49.955Z,58.30
2023-05-15T16:25:16.849Z,58.30
2023-05-15T16:27:43.637Z,59.40
2023-05-15T16:30:11.504Z,58.70
2023-05-15T16:32:38.344Z,58.90
2023-05-15T16:35:05.600Z,58.80
2023-05-15T16:37:32.522Z,58.90
2023-05-15T16:39:59.434Z,58.70
2023-05-15T16:42:26.168Z,58.60
2023-05-15T16:44:52.890Z,58.40
2023-05-15T16:47:19.656Z,58.20
2023-05-15T16:49:48.365Z,58.10
2023-05-15T16:52:16.899Z,58.20
2023-05-15T16:54:43.582Z,58.20
2023-05-15T16:57:10.496Z,58.10
2023-05-15T16:59:37.185Z,58.10
2023-05-15T17:02:04.224Z,57.80
2023-05-15T17:04:34.897Z,57.80
2023-05-15T17:07:01.787Z,57.40
2023-05-15T17:09:28.530Z,57.50
2023-05-15T17:11:55.223Z,57.30
2023-05-15T17:14:22.618Z,57.20
2023-05-15T17:16:49.379Z,57.00
2023-05-15T17:19:16.212Z,57.30
2023-05-15T17:21:43.068Z,57.20
2023-05-15T17:24:09.907Z,57.20
2023-05-15T17:26:36.561Z,57.50
2023-05-15T17:29:03.266Z,57.80
2023-05-15T17:31:30.131Z,57.80
2023-05-15T17:33:56.898Z,58.10
2023-05-15T17:36:23.699Z,58.00
2023-05-15T17:38:50.458Z,57.80
2023-05-15T17:41:17.202Z,58.40
2023-05-15T17:43:44.003Z,58.10
2023-05-15T17:46:10.748Z,58.00
2023-05-15T17:48:37.551Z,58.20
2023-05-15T17:51:04.249Z,58.70
2023-05-15T17:53:31.010Z,58.90
2023-05-15T17:55:57.824Z,59.00
2023-05-15T17:58:24.737Z,59.20
2023-05-15T18:00:52.076Z,59.60
2023-05-15T18:03:18.846Z,60.40
2023-05-15T18:05:49.478Z,60.40
2023-05-15T18:08:16.264Z,61.30
2023-05-15T18:10:42.983Z,60.90
2023-05-15T18:13:09.665Z,61.10
2023-05-15T18:15:36.383Z,61.80
2023-05-15T18:18:03.313Z,60.70
2023-05-15T18:20:30.221Z,60.90
2023-05-15T18:22:57.025Z,61.10
2023-05-15T18:25:23.919Z,61.10
2023-05-15T18:27:50.783Z,61.20
2023-05-15T18:30:17.527Z,61.50
2023-05-15T18:32:44.256Z,61.30
2023-05-15T18:35:11.203Z,61.20
2023-05-15T18:37:38.038Z,61.30
2023-05-15T18:40:05.291Z,61.80
2023-05-15T18:42:32.585Z,61.70
2023-05-15T18:44:59.341Z,61.60
2023-05-15T18:47:26.243Z,61.50
2023-05-15T18:49:52.983Z,61.80
2023-05-15T18:52:21.535Z,61.90
2023-05-15T18:54:48.580Z,61.70
2023-05-15T18:57:15.251Z,61.60
2023-05-15T18:59:41.969Z,61.80
2023-05-15T19:02:09.830Z,61.70
2023-05-15T19:04:36.714Z,61.80
2023-05-15T19:07:03.404Z,62.00
2023-05-15T19:09:30.172Z,62.30
2023-05-15T19:11:58.250Z,62.50
2023-05-15T19:14:25.046Z,63.40
2023-05-15T19:16:52.020Z,62.50
2023-05-15T19:19:19.044Z,62.50
2023-05-15T19:21:47.446Z,62.60
2023-05-15T19:24:14.212Z,62.90
2023-05-15T19:26:41.313Z,62.90
2023-05-15T19:29:08.017Z,63.30
2023-05-15T19:31:34.713Z,63.40
2023-05-15T19:34:01.366Z,63.90
2023-05-15T19:36:28.181Z,64.10
2023-05-15T19:38:54.998Z,64.30
2023-05-15T19:41:22.608Z,64.40
2023-05-15T19:43:50.898Z,64.60
2023-05-15T19:46:20.336Z,65.00
2023-05-15T19:48:47.286Z,66.50
2023-05-15T19:51:14.044Z,65.70
2023-05-15T19:53:41.432Z,65.70
2023-05-15T19:56:08.407Z,66.10
2023-05-15T19:58:35.277Z,67.00
2023-05-15T20:01:02.088Z,67.50
2023-05-15T20:03:33.175Z,67.60
2023-05-15T20:06:01.666Z,68.00
2023-05-15T20:08:29.328Z,69.10
2023-05-15T20:10:56.868Z,69.00
2023-05-15T20:13:24.093Z,69.00
2023-05-15T20:15:58.007Z,68.70
2023-05-15T20:18:30.346Z,70.00
2023-05-15T20:20:59.074Z,67.90
2023-05-15T20:23:25.785Z,67.50
2023-05-15T20:25:52.673Z,68.80
2023-05-15T20:28:19.872Z,68.00
2023-05-15T20:30:49.465Z,67.80
2023-05-15T20:33:16.194Z,67.70
2023-05-15T20:35:43.551Z,68.30
2023-05-15T20:38:11.863Z,68.50
2023-05-15T20:40:39.627Z,68.40
2023-05-15T20:43:06.492Z,69.50
2023-05-15T20:45:34.027Z,68.70
2023-05-15T20:48:01.177Z,68.90
2023-05-15T20:50:28.376Z,68.90
2023-05-15T20:52:55.614Z,67.90
2023-05-15T20:55:22.605Z,68.80
2023-05-15T20:57:50.250Z,68.70
2023-05-15T21:00:18.318Z,69.30
2023-05-15T21:02:46.620Z,69.20
2023-05-15T21:05:14.261Z,69.30
2023-05-15T21:07:41.325Z,68.60
2023-05-15T21:10:08.735Z,68.20
2023-05-15T21:12:35.559Z,68.60
2023-05-15T21:15:02.841Z,68.00
2023-05-15T21:17:29.709Z,68.20
2023-05-15T21:19:58.453Z,67.80
2023-05-15T21:22:25.194Z,67.50
2023-05-15T21:24:51.978Z,67.50
2023-05-15T21:27:18.937Z,67.60
2023-05-15T21:29:46.443Z,67.90
2023-05-15T21:32:13.221Z,68.20
2023-05-15T21:34:40.168Z,67.60
2023-05-15T21:37:06.871Z,67.60
2023-05-15T21:39:33.593Z,67.40
2023-05-15T21:42:00.455Z,67.20
2023-05-15T21:44:27.243Z,67.20
2023-05-15T21:46:54.070Z,67.10
2023-05-15T21:49:20.841Z,66.50
2023-05-15T21:51:47.564Z,66.00
2023-05-15T21:54:14.279Z,65.60
2023-05-15T21:56:41.178Z,65.60
2023-05-15T21:59:08.116Z,65.40
2023-05-15T22:01:36.250Z,65.30
2023-05-15T22:04:03.142Z,65.50
2023-05-15T22:06:29.959Z,65.20
2023-05-15T22:08:57.526Z,65.00
2023-05-15T22:11:25.419Z,65.10
2023-05-15T22:13:52.111Z,65.00
2023-05-15T22:16:19.216Z,64.80
2023-05-15T22:18:47.706Z,64.70
2023-05-15T22:21:15.424Z,64.50
2023-05-15T22:23:42.867Z,66.00
2023-05-15T22:26:09.760Z,64.30
2023-05-15T22:28:36.604Z,64.50
2023-05-15T22:31:04.424Z,64.20
2023-05-15T22:33:31.203Z,64.80
2023-05-15T22:35:57.900Z,63.50
2023-05-15T22:38:24.690Z,63.40
2023-05-15T22:40:53.177Z,63.40
2023-05-15T22:43:21.405Z,63.80
2023-05-15T22:45:48.311Z,63.80
2023-05-15T22:48:15.440Z,63.60
2023-05-15T22:50:43.634Z,63.40
2023-05-15T22:53:10.550Z,63.70
2023-05-15T22:55:37.408Z,63.70
2023-05-15T22:58:04.209Z,63.90
2023-05-15T23:00:31.452Z,64.10
2023-05-15T23:02:58.359Z,64.40
2023-05-15T23:05:25.847Z,64.30
2023-05-15T23:07:52.661Z,64.90
2023-05-15T23:10:19.636Z,64.60
2023-05-15T23:12:47.511Z,64.90
2023-05-15T23:15:14.296Z,64.70
2023-05-15T23:17:41.236Z,64.80
2023-05-15T23:20:11.134Z,64.80
2023-05-15T23:22:38.620Z,65.10
2023-05-15T23:25:07.328Z,64.90
2023-05-15T23:27:34.198Z,65.60
2023-05-15T23:30:01.134Z,64.50
2023-05-15T23:32:27.942Z,64.50
2023-05-15T23:34:54.630Z,64.40
2023-05-15T23:37:21.326Z,64.30
2023-05-15T23:39:48.056Z,64.30
2023-05-15T23:42:15.129Z,64.00
2023-05-15T23:44:41.871Z,63.70
2023-05-15T23:47:08.790Z,63.90
2023-05-15T23:49:35.790Z,63.90
2023-05-15T23:52:02.639Z,63.50
2023-05-15T23:54:29.430Z,63.40
2023-05-15T23:56:56.204Z,63.40
2023-05-15T23:59:22.867Z,63.00
